TAF KAMA
KAMA 280520Z 2806/2906 36008KT P6SM SKC FM281000 30006KT P6SM SKC FM281600 24010KT P6SM SKC=
METAR KAMA
WC KAMA
WS KAMA
WV KAMA